Federal Cedar — V7NK8 — position and weather

sailwx.info

Track history (hours):
 
Tides and Currents Weather Stations Pressure Air Temp Water Temp Dewpoint Dewpoint Depression Visibility Wind Speed Wind Dir Waves Ship Positions

Federal Cedar

Last reported at 2017-Sep-25 22:55 UTC. Time now 2017-Sep-26 09:28 UTC.
Position N 45°33' W 073°31'.

Length 200 m; draft 6.2 m.

Type: Cargo ship. MMSI: 538006473.

Date/timePositionNaut miles runAvg speedWind from/ knotsBaromVisibWave heightAir tempDewpointWater temp
2017-Sep-25 22:55N 45°33' W 073°31'3 7.3
2017-Sep-25 22:30N 45°30' W 073°31'0 0.5
2017-Sep-25 21:55N 45°30' W 073°31'1 2.4
2017-Sep-25 21:30N 45°29' W 073°31'3 6.8
2017-Sep-25 21:00N 45°25' W 073°30'3 5.3
2017-Sep-25 20:30N 45°24' W 073°34'0 0.0
2017-Sep-25 20:00N 45°24' W 073°34'1 1.5
2017-Sep-25 19:30N 45°24' W 073°35'2 4.0
2017-Sep-25 19:00N 45°24' W 073°38'3 5.8
2017-Sep-25 18:30N 45°25' W 073°42'510.2
2017-Sep-25 18:00N 45°23' W 073°49'611.7
2017-Sep-25 17:30N 45°19' W 073°55'0 0.8
2017-Sep-25 17:01N 45°19' W 073°55'1 1.6
2017-Sep-25 16:30N 45°18' W 073°56'0 0.8
2017-Sep-25 16:00N 45°18' W 073°56'2 4.7
2017-Sep-25 15:30N 45°16' W 073°57'5 9.4
2017-Sep-25 14:59N 45°13' W 074°03'5 9.7
2017-Sep-25 14:30N 45°14' W 074°10'611.7
2017-Sep-25 13:59N 45°12' W 074°18'712.6
2017-Sep-25 13:25N 45°08' W 074°26'  
2017-Sep-18 14:53N 45°12' W 074°18'5 9.2
2017-Sep-18 14:18N 45°14' W 074°10'3 8.5
2017-Sep-18 14:00N 45°14' W 074°07'4 7.8
2017-Sep-18 13:29N 45°14' W 074°01'4 8.1
2017-Sep-18 12:56N 45°17' W 073°57'2 3.9
2017-Sep-18 12:31N 45°18' W 073°56'0 0.9
2017-Sep-18 12:00N 45°19' W 073°55'0 0.8
2017-Sep-18 11:30N 45°19' W 073°55'1 1.6
2017-Sep-18 11:00N 45°20' W 073°55'4 8.3
2017-Sep-18 10:30N 45°22' W 073°50'5 9.1
2017-Sep-18 10:00N 45°24' W 073°44'3 6.1
2017-Sep-18 09:30N 45°25' W 073°40'3 5.5
2017-Sep-18 09:00N 45°24' W 073°36'1 3.0
2017-Sep-18 08:31N 45°24' W 073°34'0 0.5
2017-Sep-18 08:00N 45°24' W 073°34'2 3.6
2017-Sep-18 07:30N 45°25' W 073°31'3 6.4
2017-Sep-18 07:01N 45°28' W 073°30'2 2.3
2017-Sep-18 06:11N 45°30' W 073°31'0 1.1
2017-Sep-18 06:00N 45°30' W 073°31'2 3.7
2017-Sep-18 05:27N 45°32' W 073°32'2 0.1
2017-Sep-17 09:30N 45°34' W 073°31'4 5.8
2017-Sep-17 08:49N 45°38' W 073°29'2 7.8
2017-Sep-17 08:31N 45°40' W 073°28'14 9.8
2017-Sep-17 07:04N 45°51' W 073°16'  
Track history (hours):
 
Tides and Currents Weather Stations Pressure Air Temp Water Temp Dewpoint Dewpoint Depression Visibility Wind Speed Wind Dir Waves Ship Positions

Federal Cedar

Last reported at 2017-Sep-25 22:55 UTC. Time now 2017-Sep-26 09:28 UTC.
Position N 45°33' W 073°31'.

Length 200 m; draft 6.2 m.

Type: Cargo ship. MMSI: 538006473.

Date/timePositionNaut miles runAvg speedWind from/ knotsBaromVisibWave heightAir tempDewpointWater temp
2017-Sep-25 22:55N 45°33' W 073°31'3 7.3
2017-Sep-25 22:30N 45°30' W 073°31'0 0.5
2017-Sep-25 21:55N 45°30' W 073°31'1 2.4
2017-Sep-25 21:30N 45°29' W 073°31'3 6.8
2017-Sep-25 21:00N 45°25' W 073°30'3 5.3
2017-Sep-25 20:30N 45°24' W 073°34'0 0.0
2017-Sep-25 20:00N 45°24' W 073°34'1 1.5
2017-Sep-25 19:30N 45°24' W 073°35'2 4.0
2017-Sep-25 19:00N 45°24' W 073°38'3 5.8
2017-Sep-25 18:30N 45°25' W 073°42'510.2
2017-Sep-25 18:00N 45°23' W 073°49'611.7
2017-Sep-25 17:30N 45°19' W 073°55'0 0.8
2017-Sep-25 17:01N 45°19' W 073°55'1 1.6
2017-Sep-25 16:30N 45°18' W 073°56'0 0.8
2017-Sep-25 16:00N 45°18' W 073°56'2 4.7
2017-Sep-25 15:30N 45°16' W 073°57'5 9.4
2017-Sep-25 14:59N 45°13' W 074°03'5 9.7
2017-Sep-25 14:30N 45°14' W 074°10'611.7
2017-Sep-25 13:59N 45°12' W 074°18'712.6
2017-Sep-25 13:25N 45°08' W 074°26'  
2017-Sep-18 14:53N 45°12' W 074°18'5 9.2
2017-Sep-18 14:18N 45°14' W 074°10'3 8.5
2017-Sep-18 14:00N 45°14' W 074°07'4 7.8
2017-Sep-18 13:29N 45°14' W 074°01'4 8.1
2017-Sep-18 12:56N 45°17' W 073°57'2 3.9
2017-Sep-18 12:31N 45°18' W 073°56'0 0.9
2017-Sep-18 12:00N 45°19' W 073°55'0 0.8
2017-Sep-18 11:30N 45°19' W 073°55'1 1.6
2017-Sep-18 11:00N 45°20' W 073°55'4 8.3
2017-Sep-18 10:30N 45°22' W 073°50'5 9.1
2017-Sep-18 10:00N 45°24' W 073°44'3 6.1
2017-Sep-18 09:30N 45°25' W 073°40'3 5.5
2017-Sep-18 09:00N 45°24' W 073°36'1 3.0
2017-Sep-18 08:31N 45°24' W 073°34'0 0.5
2017-Sep-18 08:00N 45°24' W 073°34'2 3.6
2017-Sep-18 07:30N 45°25' W 073°31'3 6.4
2017-Sep-18 07:01N 45°28' W 073°30'2 2.3
2017-Sep-18 06:11N 45°30' W 073°31'0 1.1
2017-Sep-18 06:00N 45°30' W 073°31'2 3.7
2017-Sep-18 05:27N 45°32' W 073°32'2 0.1
2017-Sep-17 09:30N 45°34' W 073°31'4 5.8
2017-Sep-17 08:49N 45°38' W 073°29'2 7.8
2017-Sep-17 08:31N 45°40' W 073°28'14 9.8
2017-Sep-17 07:04N 45°51' W 073°16'  

Dump ship's entire track history